Time;durP1;ratioP1;P1;durP2;ratioP2;P2;SDS_P1;SDS_P2;PMS_P1;PMS_P2;Temp;Humidity;BMP_temperature;BMP_pressure;BME280_temperature;BME280_humidity;BME280_pressure;Samples;Min_cycle;Max_cycle;Signal;HPM_P1;HPM_P2
2021/07/15 01:51:07;;;;;;;10.25;9.35;;;;;;;23.89;100.00;100490.42;1725044;80;20992;-44
2021/07/15 01:53:35;;;;;;;9.95;9.05;;;;;;;23.87;100.00;100486.17;1700720;82;21051;-44
2021/07/15 01:56:03;;;;;;;10.35;9.43;;;;;;;23.85;100.00;100495.02;1723970;80;21011;-44
2021/07/15 01:58:31;;;;;;;10.82;9.83;;;;;;;23.84;100.00;100490.58;1719345;80;20988;-42
2021/07/15 02:00:58;;;;;;;8.93;8.13;;;;;;;23.84;100.00;100504.20;1727240;82;20980;-46
2021/07/15 02:03:25;;;;;;;10.13;9.13;;;;;;;23.84;100.00;100502.83;1699286;80;21011;-45
2021/07/15 02:05:53;;;;;;;11.15;10.05;;;;;;;23.83;100.00;100502.52;1728081;81;20988;-44
2021/07/15 02:08:20;;;;;;;10.72;9.78;;;;;;;23.82;100.00;100507.11;1722707;80;20935;-41
2021/07/15 02:10:48;;;;;;;9.35;8.45;;;;;;;23.80;100.00;100510.52;1702163;82;20964;-43
2021/07/15 02:13:17;;;;;;;9.53;8.73;;;;;;;23.80;100.00;100511.87;1726041;80;21347;-42
2021/07/15 02:15:45;;;;;;;10.35;9.45;;;;;;;23.81;100.00;100523.61;1695757;82;21028;-43
2021/07/15 02:18:18;;;;;;;12.40;9.88;;;;;;;23.80;100.00;100517.32;1726502;81;21020;-43
2021/07/15 02:20:46;;;;;;;8.90;8.10;;;;;;;23.81;100.00;100520.88;1727997;80;21039;-42
2021/07/15 02:23:14;;;;;;;10.30;9.30;;;;;;;23.78;100.00;100505.75;1723923;82;20980;-39
2021/07/15 02:25:42;;;;;;;10.60;9.70;;;;;;;23.79;100.00;100510.19;1722442;82;21012;-41
2021/07/15 02:28:12;;;;;;;10.45;9.55;;;;;;;23.77;100.00;100507.31;1728364;81;21059;-40
2021/07/15 02:30:39;;;;;;;10.35;9.10;;;;;;;23.75;100.00;100508.83;1726555;80;20984;-41
2021/07/15 02:33:14;;;;;;;11.60;10.05;;;;;;;23.74;100.00;100513.95;1725237;80;20996;-43
2021/07/15 02:35:49;;;;;;;10.50;9.50;;;;;;;23.72;100.00;100515.96;1711829;82;21466;-42
2021/07/15 02:38:18;;;;;;;9.98;9.03;;;;;;;23.70;100.00;100513.40;1726546;82;20984;-42
2021/07/15 02:40:45;;;;;;;10.75;9.50;;;;;;;23.69;100.00;100511.72;1726651;82;21016;-41
2021/07/15 02:43:12;;;;;;;10.65;9.75;;;;;;;23.66;100.00;100505.27;1723921;80;21031;-41
2021/07/15 02:45:39;;;;;;;10.75;9.75;;;;;;;23.66;100.00;100513.43;1730727;80;20988;-41
2021/07/15 02:48:06;;;;;;;10.55;9.55;;;;;;;23.67;100.00;100510.19;1724567;81;20968;-41
2021/07/15 02:50:34;;;;;;;9.03;7.95;;;;;;;23.67;100.00;100511.55;1727129;80;21518;-42
2021/07/15 02:53:01;;;;;;;9.53;8.73;;;;;;;23.67;100.00;100518.36;1726736;80;21087;-44
2021/07/15 02:55:27;;;;;;;10.50;9.48;;;;;;;23.68;100.00;100514.59;1726397;80;21000;-42
2021/07/15 02:58:13;;;;;;;10.78;9.85;;;;;;;23.68;100.00;100515.95;1719346;82;21025;-42
2021/07/15 03:00:57;;;;;;;9.18;8.45;;;;;;;23.68;100.00;100520.04;1711064;82;20998;-41
2021/07/15 03:03:53;;;;;;;9.20;8.40;;;;;;;23.68;100.00;100520.04;1716771;81;21013;-41
2021/07/15 03:06:28;;;;;;;9.70;8.80;;;;;;;23.69;100.00;100514.95;1703472;82;21063;-40
2021/07/15 03:08:58;;;;;;;10.88;9.88;;;;;;;23.69;100.00;100519.88;1657735;84;20996;-42
2021/07/15 03:11:33;;;;;;;10.85;9.85;;;;;;;23.69;100.00;100521.76;1665355;83;21530;-43
2021/07/15 03:14:00;;;;;;;9.60;8.68;;;;;;;23.69;100.00;100519.88;1682226;83;20940;-41
2021/07/15 03:16:28;;;;;;;9.85;8.95;;;;;;;23.70;100.00;100517.48;1658411;84;20965;-41
2021/07/15 03:18:55;;;;;;;9.90;8.95;;;;;;;23.71;100.00;100515.12;1660079;84;21056;-45
2021/07/15 03:21:24;;;;;;;9.73;8.83;;;;;;;23.74;100.00;100515.31;1636828;85;22036;-42
2021/07/15 03:23:53;;;;;;;9.53;8.68;;;;;;;23.75;100.00;100512.39;1710371;82;21048;-44
2021/07/15 03:26:19;;;;;;;11.90;9.98;;;;;;;23.77;100.00;100517.67;1711597;82;20965;-48
2021/07/15 03:28:46;;;;;;;9.83;8.95;;;;;;;23.80;100.00;100524.64;1700298;81;21020;-41
2021/07/15 03:31:14;;;;;;;9.60;8.80;;;;;;;23.81;100.00;100529.89;1704846;81;21660;-44
2021/07/15 03:33:40;;;;;;;10.95;9.78;;;;;;;23.82;100.00;100530.25;1715613;81;21008;-42
2021/07/15 03:36:08;;;;;;;10.50;9.15;;;;;;;23.84;100.00;100526.84;1710470;81;20953;-44
2021/07/15 03:38:36;;;;;;;10.78;9.78;;;;;;;23.86;100.00;100528.86;1715407;81;20933;-42
2021/07/15 03:41:04;;;;;;;11.97;10.85;;;;;;;23.87;100.00;100527.84;1710701;82;21011;-42
2021/07/15 03:43:30;;;;;;;11.97;10.70;;;;;;;23.89;100.00;100520.36;1711106;82;21448;-42
2021/07/15 03:45:59;;;;;;;10.55;9.70;;;;;;;23.93;100.00;100521.69;1711414;82;21036;-42
2021/07/15 03:48:27;;;;;;;10.82;9.85;;;;;;;23.99;100.00;100524.25;1710341;81;20953;-41
2021/07/15 03:51:01;;;;;;;11.05;9.90;;;;;;;24.03;100.00;100528.81;1711035;81;21500;-42
2021/07/15 03:53:28;;;;;;;10.65;9.65;;;;;;;24.06;100.00;100525.73;1714459;81;21032;-52
2021/07/15 03:55:56;;;;;;;10.80;9.90;;;;;;;24.10;100.00;100527.93;1709537;82;21483;-41
2021/07/15 03:58:23;;;;;;;10.28;9.20;;;;;;;24.14;100.00;100527.05;1705917;82;21531;-40
2021/07/15 04:00:51;;;;;;;11.15;9.80;;;;;;;24.17;100.00;100526.20;1715314;82;20937;-42
2021/07/15 04:03:20;;;;;;;12.65;11.35;;;;;;;24.23;100.00;100529.24;1712726;82;21091;-42
2021/07/15 04:05:46;;;;;;;11.63;10.63;;;;;;;24.27;100.00;100531.44;1711375;82;20988;-43
2021/07/15 04:08:12;;;;;;;11.70;10.55;;;;;;;24.31;100.00;100530.56;1713177;81;21476;-41
2021/07/15 04:10:41;;;;;;;11.30;10.30;;;;;;;24.32;100.00;100526.30;1710350;81;21590;-42
2021/07/15 04:13:08;;;;;;;10.38;9.48;;;;;;;24.36;100.00;100528.98;1691374;83;20989;-44
2021/07/15 04:16:08;;;;;;;11.28;10.23;;;;;;;24.41;100.00;100533.91;1711396;81;21832;-39
2021/07/15 04:18:38;;;;;;;12.03;10.88;;;;;;;24.44;100.00;100532.18;1713455;83;21983;-40
2021/07/15 04:21:06;;;;;;;10.80;9.80;;;;;;;24.45;100.00;100528.48;1701256;81;21495;-41
2021/07/15 04:23:35;;;;;;;10.68;9.63;;;;;;;24.46;100.00;100526.59;1713172;81;20991;-42
2021/07/15 04:26:01;;;;;;;11.12;10.00;;;;;;;24.47;100.00;100527.80;1718954;81;21530;-41
2021/07/15 04:28:28;;;;;;;10.48;9.38;;;;;;;24.50;100.00;100518.41;1714027;81;20957;-39
2021/07/15 04:31:01;;;;;;;11.22;10.13;;;;;;;24.52;100.00;100510.88;1712791;81;21751;-43
2021/07/15 04:33:28;;;;;;;10.65;9.75;;;;;;;24.58;100.00;100510.17;1709205;81;21563;-43
2021/07/15 04:35:55;;;;;;;11.15;10.15;;;;;;;24.62;100.00;100503.34;1709587;83;20996;-42
2021/07/15 04:38:22;;;;;;;11.38;10.30;;;;;;;24.68;100.00;100507.22;1711623;81;20961;-45
2021/07/15 04:40:49;;;;;;;11.50;10.40;;;;;;;24.74;100.00;100509.20;1709124;81;20968;-43
2021/07/15 04:43:16;;;;;;;10.78;9.78;;;;;;;24.77;100.00;100508.84;1708908;83;21036;-45
2021/07/15 04:45:44;;;;;;;11.15;9.53;;;;;;;24.82;100.00;100509.14;1711105;81;21000;-48
2021/07/15 04:48:11;;;;;;;10.82;9.73;;;;;;;24.87;100.00;100509.96;1694701;82;20977;-47
2021/07/15 04:50:38;;;;;;;12.53;10.98;;;;;;;24.91;100.00;100503.97;1710471;83;21446;-45
2021/07/15 04:53:08;;;;;;;11.60;10.60;;;;;;;24.93;100.00;100493.73;1721606;82;21012;-46
2021/07/15 04:55:35;;;;;;;10.68;9.68;;;;;;;24.96;100.00;100490.63;1717765;81;21479;-42
2021/07/15 04:58:03;;;;;;;12.65;11.35;;;;;;;25.01;100.00;100491.45;1722459;81;20972;-38
2021/07/15 05:00:30;;;;;;;10.65;9.65;;;;;;;25.06;100.00;100497.20;1716212;81;20964;-42
2021/07/15 05:03:00;;;;;;;11.08;9.95;;;;;;;25.13;100.00;100497.33;1719230;81;20988;-44
2021/07/15 05:05:27;;;;;;;10.90;9.93;;;;;;;25.18;100.00;100493.56;1718574;81;20980;-42
2021/07/15 05:07:53;;;;;;;11.95;10.03;;;;;;;25.22;100.00;100498.47;1719258;81;20941;-42
2021/07/15 05:10:20;;;;;;;11.08;10.15;;;;;;;25.28;100.00;100493.30;1723761;81;21498;-42
2021/07/15 05:12:48;;;;;;;10.32;9.43;;;;;;;25.33;100.00;100493.07;1720953;81;21044;-42
2021/07/15 05:15:16;;;;;;;10.95;9.75;;;;;;;25.35;100.00;100493.73;1725125;81;21008;-42
2021/07/15 05:17:43;;;;;;;11.08;9.98;;;;;;;25.40;100.00;100482.23;1725250;81;22287;-40
2021/07/15 05:20:13;;;;;;;9.93;9.03;;;;;;;25.45;100.00;100489.34;1716070;81;20969;-44
2021/07/15 05:22:41;;;;;;;9.78;8.88;;;;;;;25.49;100.00;100486.59;1722321;81;21000;-38
2021/07/15 05:25:10;;;;;;;11.78;7.97;;;;;;;25.56;100.00;100487.54;1720527;81;21006;-42
2021/07/15 05:27:37;;;;;;;8.63;7.83;;;;;;;25.60;100.00;100492.97;1719065;81;21801;-44
2021/07/15 05:30:07;;;;;;;8.80;7.03;;;;;;;25.65;100.00;100491.88;1719080;82;21079;-49
2021/07/15 05:32:36;;;;;;;7.83;7.12;;;;;;;25.69;100.00;100484.16;1721522;81;20980;-46
2021/07/15 05:35:03;;;;;;;7.47;6.78;;;;;;;25.74;100.00;100480.86;1724583;81;20988;-46
2021/07/15 05:37:30;;;;;;;7.30;6.60;;;;;;;25.79;100.00;100475.16;1722677;81;20980;-45
2021/07/15 05:39:57;;;;;;;10.53;8.13;;;;;;;25.83;100.00;100476.48;1720649;81;21027;-39
2021/07/15 05:42:24;;;;;;;7.90;7.05;;;;;;;25.87;100.00;100476.97;1718195;81;21031;-49
2021/07/15 05:44:53;;;;;;;7.90;6.87;;;;;;;25.92;100.00;100472.31;1720505;81;21525;-45
2021/07/15 05:47:19;;;;;;;7.20;6.60;;;;;;;25.95;100.00;100474.13;1718146;82;20992;-48
2021/07/15 05:49:46;;;;;;;7.70;7.00;;;;;;;26.00;100.00;100477.14;1720206;82;21043;-49
2021/07/15 05:52:13;;;;;;;7.55;6.55;;;;;;;26.05;100.00;100478.77;1714498;82;20989;-45
2021/07/15 05:54:40;;;;;;;8.90;7.58;;;;;;;26.06;100.00;100476.39;1714885;82;21095;-45
2021/07/15 05:57:07;;;;;;;26.93;22.95;;;;;;;26.11;100.00;100468.99;1711135;82;21052;-44
2021/07/15 05:59:38;;;;;;;13.13;11.93;;;;;;;26.16;100.00;100472.00;1711227;82;20965;-49
2021/07/15 06:02:15;;;;;;;10.15;9.23;;;;;;;26.20;100.00;100466.45;1714812;81;21543;-47
2021/07/15 06:04:51;;;;;;;8.08;7.20;;;;;;;26.25;100.00;100468.09;1712908;82;21420;-47
2021/07/15 06:07:22;;;;;;;12.18;11.08;;;;;;;26.29;100.00;100474.87;1709877;82;21531;-55
2021/07/15 06:09:49;;;;;;;8.65;7.78;;;;;;;26.33;100.00;100468.00;1710641;83;21155;-56
2021/07/15 06:12:16;;;;;;;9.00;8.10;;;;;;;26.39;100.00;100467.73;1716483;82;20985;-51
2021/07/15 06:14:42;;;;;;;11.83;7.15;;;;;;;26.43;100.00;100466.81;1712715;83;20953;-56
2021/07/15 06:17:09;;;;;;;7.08;6.47;;;;;;;26.49;100.00;100468.27;1712702;81;21475;-57
2021/07/15 06:19:37;;;;;;;7.75;6.70;;;;;;;26.55;100.00;100465.30;1710414;82;21052;-61
2021/07/15 06:22:04;;;;;;;7.37;6.67;;;;;;;26.62;100.00;100459.91;1711197;82;21000;-59
2021/07/15 06:24:31;;;;;;;7.30;5.95;;;;;;;26.68;100.00;100453.13;1716579;81;20948;-53
2021/07/15 06:26:57;;;;;;;10.00;7.17;;;;;;;26.74;100.00;100446.89;1711584;81;21731;-54
2021/07/15 06:29:24;;;;;;;8.38;6.67;;;;;;;26.78;100.00;100444.59;1711929;82;20937;-58
2021/07/15 06:31:51;;;;;;;8.75;6.72;;;;;;;26.84;100.00;100447.05;1709322;81;21048;-40
2021/07/15 06:34:17;;;;;;;9.75;7.37;;;;;;;26.88;100.00;100447.84;1711833;82;21975;-42
2021/07/15 06:37:12;;;;;;;10.40;6.62;;;;;;;26.95;100.00;100446.54;1640525;84;21470;-40
2021/07/15 06:39:40;;;;;;;8.05;6.03;;;;;;;27.01;100.00;100439.42;1620549;86;21072;-48
2021/07/15 06:42:07;;;;;;;7.17;6.03;;;;;;;27.06;100.00;100432.83;1661514;84;21042;-43
2021/07/15 06:44:33;;;;;;;6.30;5.70;;;;;;;27.11;100.00;100433.08;1658463;84;21056;-40
2021/07/15 06:47:04;;;;;;;6.47;5.87;;;;;;;27.15;100.00;100428.91;1644153;85;21495;-48
2021/07/15 06:49:30;;;;;;;10.55;6.65;;;;;;;27.19;100.00;100427.52;1644826;85;21040;-50
2021/07/15 06:51:57;;;;;;;7.25;6.55;;;;;;;27.23;100.00;100426.05;1647693;85;21073;-53
2021/07/15 06:54:24;;;;;;;8.85;6.10;;;;;;;27.25;100.00;100424.50;1640319;85;21063;-50
2021/07/15 06:56:51;;;;;;;10.90;7.33;;;;;;;27.29;100.00;100418.42;1642904;85;21605;-44
2021/07/15 06:59:17;;;;;;;7.20;6.47;;;;;;;27.34;100.00;100417.80;1643303;85;21112;-42
2021/07/15 07:01:45;;;;;;;7.37;5.78;;;;;;;27.37;100.00;100416.89;1641138;85;21087;-47
2021/07/15 07:04:11;;;;;;;8.38;6.08;;;;;;;27.41;100.00;100411.84;1640683;85;21582;-49
2021/07/15 07:06:38;;;;;;;6.80;5.92;;;;;;;27.48;100.00;100418.73;1641910;85;21045;-48
2021/07/15 07:09:05;;;;;;;6.92;6.25;;;;;;;27.57;100.00;100417.54;1635054;85;20988;-49
2021/07/15 07:11:32;;;;;;;8.63;5.72;;;;;;;27.65;100.00;100413.25;1646101;85;21035;-47
2021/07/15 07:13:58;;;;;;;8.83;6.15;;;;;;;27.72;100.00;100411.90;1643022;85;21047;-51
2021/07/15 07:16:27;;;;;;;7.55;5.60;;;;;;;27.76;100.00;100410.45;1686049;82;20973;-53
2021/07/15 07:18:53;;;;;;;6.67;5.72;;;;;;;27.80;100.00;100409.01;1711562;83;21036;-50
2021/07/15 07:21:23;;;;;;;6.28;5.20;;;;;;;27.84;100.00;100410.30;1712000;81;21080;-47
2021/07/15 07:23:51;;;;;;;6.45;5.30;;;;;;;27.92;100.00;100410.64;1715729;81;21064;-47
2021/07/15 07:26:17;;;;;;;5.83;5.22;;;;;;;27.97;100.00;100404.89;1717703;82;21052;-41
2021/07/15 07:28:44;;;;;;;6.67;5.45;;;;;;;28.01;100.00;100410.80;1718717;81;21621;-48
2021/07/15 07:31:10;;;;;;;6.80;5.58;;;;;;;28.06;100.00;100409.66;1632387;85;21017;-45
2021/07/15 07:33:40;;;;;;;5.53;5.03;;;;;;;28.11;100.00;100410.41;1713863;81;21028;-43
2021/07/15 07:36:08;;;;;;;;;;;;;;;28.16;100.00;100417.48;1714230;83;20977;-45
2021/07/15 07:38:35;;;;;;;5.37;4.87;;;;;;;28.23;100.00;100416.98;1711937;82;20109;-43
2021/07/15 07:41:02;;;;;;;6.42;5.53;;;;;;;28.29;100.00;100407.92;1710864;81;21032;-42
2021/07/15 07:43:29;;;;;;;9.28;5.85;;;;;;;28.33;100.00;100410.58;1711357;81;21630;-41
2021/07/15 07:45:56;;;;;;;5.75;5.17;;;;;;;28.39;100.00;100406.15;1711342;82;20981;-44
2021/07/15 07:48:23;;;;;;;6.03;5.03;;;;;;;28.45;100.00;100405.34;1711693;81;21028;-40
2021/07/15 07:50:50;;;;;;;6.33;5.53;;;;;;;28.54;96.64;100405.46;1711412;82;20996;-43
2021/07/15 07:53:17;;;;;;;6.87;6.20;;;;;;;28.62;95.48;100407.99;1713429;81;21094;-40
2021/07/15 07:55:44;;;;;;;5.47;4.97;;;;;;;28.69;95.72;100409.38;1716920;82;21538;-39
2021/07/15 07:58:12;;;;;;;8.50;5.95;;;;;;;28.75;93.87;100409.06;1712152;82;20945;-45
2021/07/15 08:00:38;;;;;;;8.75;5.72;;;;;;;28.79;96.88;100411.17;1711391;83;21809;-40
2021/07/15 08:03:05;;;;;;;7.92;5.40;;;;;;;28.82;99.36;100410.75;1710320;82;21060;-41
2021/07/15 08:05:34;;;;;;;6.00;4.70;;;;;;;28.89;97.02;100408.02;1712089;82;20965;-45
2021/07/15 08:08:01;;;;;;;5.78;5.28;;;;;;;28.93;92.89;100416.66;1723904;82;21929;-47
2021/07/15 08:10:27;;;;;;;9.50;5.42;;;;;;;28.96;93.96;100414.34;1722390;81;20964;-45
2021/07/15 08:12:54;;;;;;;6.85;5.92;;;;;;;28.95;90.75;100407.16;1723561;82;20988;-42
2021/07/15 08:15:20;;;;;;;6.30;5.70;;;;;;;28.95;92.07;100411.27;1719083;81;21479;-43
2021/07/15 08:17:47;;;;;;;5.75;5.25;;;;;;;28.95;93.73;100404.41;1713160;81;21404;-42
2021/07/15 08:20:14;;;;;;;5.75;5.22;;;;;;;28.99;89.24;100403.47;1715692;81;20982;-40
2021/07/15 08:22:42;;;;;;;7.22;5.58;;;;;;;29.05;90.53;100400.73;1716601;82;21040;-42
2021/07/15 08:25:10;;;;;;;6.10;5.15;;;;;;;29.12;90.91;100404.86;1716289;81;21048;-44
2021/07/15 08:27:37;;;;;;;6.20;5.62;;;;;;;29.15;94.56;100404.42;1661905;85;20976;-41
2021/07/15 08:30:05;;;;;;;5.53;5.03;;;;;;;29.18;98.24;100403.15;1719848;81;21111;-44
2021/07/15 08:32:32;;;;;;;8.68;5.80;;;;;;;29.20;94.79;100405.16;1713028;83;20973;-39
2021/07/15 08:34:59;;;;;;;8.35;5.72;;;;;;;29.23;97.46;100407.47;1718957;82;21380;-41
2021/07/15 08:37:25;;;;;;;5.90;5.20;;;;;;;29.24;97.75;100410.02;1719182;81;21068;-43
2021/07/15 08:39:52;;;;;;;5.85;5.25;;;;;;;29.23;100.00;100417.95;1719108;82;21083;-42
2021/07/15 08:42:19;;;;;;;5.67;5.17;;;;;;;29.22;95.79;100411.28;1716183;82;20964;-43
2021/07/15 08:44:47;;;;;;;7.53;5.25;;;;;;;29.25;97.44;100411.69;1716196;82;20973;-44
2021/07/15 08:47:15;;;;;;;6.72;5.40;;;;;;;29.27;95.62;100414.23;1714254;82;21009;-44
2021/07/15 08:49:42;;;;;;;10.58;6.78;;;;;;;29.29;97.92;100409.38;1711524;81;21020;-42
2021/07/15 08:52:08;;;;;;;6.22;5.60;;;;;;;29.31;96.41;100411.39;1716364;81;20964;-42
2021/07/15 08:54:50;;;;;;;8.88;5.87;;;;;;;29.33;93.50;100406.50;1728597;80;21534;-42
2021/07/15 08:57:04;;;;;;;8.98;5.87;;;;;;;29.40;96.09;100413.36;1726936;80;20984;-41
2021/07/15 08:59:31;;;;;;;6.35;4.92;;;;;;;29.44;93.57;100412.72;1681061;82;20972;-39
2021/07/15 09:01:58;;;;;;;5.65;5.15;;;;;;;29.49;95.41;100414.83;1739466;80;21004;-38
2021/07/15 09:04:24;;;;;;;5.05;4.60;;;;;;;29.51;90.98;100407.22;1730816;81;21051;-40
2021/07/15 09:06:51;;;;;;;8.90;5.47;;;;;;;29.55;88.16;100410.66;1732058;80;20949;-41
2021/07/15 09:09:20;;;;;;;6.08;5.15;;;;;;;29.59;86.21;100401.48;1737665;82;21032;-44
2021/07/15 09:11:46;;;;;;;6.17;5.58;;;;;;;29.64;88.50;100398.09;1722051;80;20964;-43
2021/07/15 09:14:17;;;;;;;9.30;6.45;;;;;;;29.69;88.49;100396.94;1729415;82;21483;-42
2021/07/15 09:16:52;;;;;;;5.35;4.85;;;;;;;29.73;90.31;100399.55;1731831;82;21510;-44
2021/07/15 09:19:22;;;;;;;6.25;5.65;;;;;;;29.76;87.83;100396.36;1729764;80;21033;-41
2021/07/15 09:21:48;;;;;;;7.28;4.53;;;;;;;29.77;80.94;100395.31;1724474;80;20991;-39
2021/07/15 09:24:30;;;;;;;6.30;5.00;;;;;;;29.76;78.66;100391.73;1726041;80;20992;-43
2021/07/15 09:27:00;;;;;;;5.97;5.42;;;;;;;29.77;85.41;100396.69;1732762;80;20952;-45
2021/07/15 09:29:26;;;;;;;5.35;4.78;;;;;;;29.78;89.14;100391.50;1708984;82;20992;-43
2021/07/15 09:31:59;;;;;;;4.97;4.53;;;;;;;29.81;85.90;100385.59;1728295;81;20969;-45
2021/07/15 09:34:30;;;;;;;5.33;4.83;;;;;;;29.82;77.35;100383.14;1735547;80;21086;-45
2021/07/15 09:37:12;;;;;;;6.87;5.87;;;;;;;29.83;77.80;100383.98;1740599;80;20988;-43
2021/07/15 09:39:44;;;;;;;;;;;;;;;29.81;84.16;100384.22;1733317;80;21089;-40
2021/07/15 09:42:20;;;;;;;8.85;5.55;;;;;;;29.80;84.56;100383.88;1730485;82;20155;-40
2021/07/15 09:44:50;;;;;;;6.62;5.92;;;;;;;29.83;75.08;100382.61;1722249;80;21011;-46
2021/07/15 09:47:31;;;;;;;;;;;;;;;29.88;75.23;100385.53;1728928;81;20957;-43
2021/07/15 09:50:18;;;;;;;6.05;5.15;;;;;;;29.93;75.58;100376.11;1733816;80;20593;-41
2021/07/15 09:52:45;;;;;;;10.28;6.75;;;;;;;30.00;81.25;100374.17;1726906;80;20985;-41
2021/07/15 09:55:25;;;;;;;8.75;5.17;;;;;;;30.08;78.36;100378.03;1727540;80;20992;-40
2021/07/15 09:58:06;;;;;;;6.37;5.00;;;;;;;30.16;73.36;100381.05;1727390;80;20952;-41
2021/07/15 10:00:43;;;;;;;6.90;4.78;;;;;;;30.25;68.68;100375.64;1730981;80;21463;-41
2021/07/15 10:03:11;;;;;;;4.72;4.33;;;;;;;30.32;70.29;100366.81;1733382;80;21099;-41
2021/07/15 10:05:52;;;;;;;6.65;4.87;;;;;;;30.39;72.63;100370.88;1728255;80;21415;-41
2021/07/15 10:08:27;;;;;;;6.35;5.03;;;;;;;30.45;76.35;100376.88;1725069;82;20944;-42
2021/07/15 10:10:58;;;;;;;5.47;4.95;;;;;;;30.52;77.67;100370.80;1725936;80;21016;-39
2021/07/15 10:13:26;;;;;;;5.37;4.87;;;;;;;30.58;73.34;100371.27;1724406;80;20972;-43
2021/07/15 10:15:53;;;;;;;7.40;5.97;;;;;;;30.65;70.25;100374.52;1731401;80;20972;-41
2021/07/15 10:18:44;;;;;;;5.55;4.60;;;;;;;30.69;67.08;100364.73;1722636;80;21415;-39
2021/07/15 10:21:14;;;;;;;6.45;5.12;;;;;;;30.71;66.59;100363.98;1727008;82;21000;-46
2021/07/15 10:23:44;;;;;;;8.60;5.30;;;;;;;30.74;64.66;100368.48;1725820;81;21313;-42
2021/07/15 10:26:12;;;;;;;6.40;4.85;;;;;;;30.78;62.91;100366.14;1729045;80;20991;-42
2021/07/15 10:28:43;;;;;;;;;;;;;;;30.81;64.52;100359.64;1726989;81;21002;-44
2021/07/15 10:31:10;;;;;;;6.62;4.62;;;;;;;30.86;65.86;100359.00;1724350;81;20099;-43
2021/07/15 10:33:38;;;;;;;6.97;4.72;;;;;;;30.91;61.21;100357.78;1736057;80;20940;-44
2021/07/15 10:36:05;;;;;;;5.80;4.80;;;;;;;30.95;57.01;100352.69;1731722;80;20992;-43
2021/07/15 10:38:41;;;;;;;7.12;4.80;;;;;;;30.98;58.99;100351.69;1732039;80;20984;-40
2021/07/15 10:41:08;;;;;;;6.62;4.67;;;;;;;31.01;62.67;100352.60;1725798;82;21055;-40
2021/07/15 10:43:35;;;;;;;5.62;4.70;;;;;;;31.04;61.01;100349.93;1730047;80;21321;-39
2021/07/15 10:46:04;;;;;;;6.78;4.92;;;;;;;31.08;65.44;100350.33;1728743;80;21003;-43
2021/07/15 10:48:34;;;;;;;7.10;5.55;;;;;;;31.12;61.87;100352.41;1723740;80;20987;-38
2021/07/15 10:51:03;;;;;;;;;;;;;;;31.17;56.68;100348.44;1729456;82;21011;-38
2021/07/15 10:53:30;;;;;;;8.33;5.35;;;;;;;31.20;55.75;100344.38;1738224;80;20114;-37
2021/07/15 10:55:57;;;;;;;7.00;5.10;;;;;;;31.21;60.17;100340.00;1743389;80;21035;-42
2021/07/15 10:58:48;;;;;;;8.15;4.70;;;;;;;31.23;58.99;100339.79;1728450;80;20972;-43
2021/07/15 11:01:41;;;;;;;7.08;4.83;;;;;;;31.27;60.99;100340.99;1721743;82;20988;-41
2021/07/15 11:04:21;;;;;;;5.80;5.20;;;;;;;31.31;60.10;100333.97;1650328;85;21119;-43
2021/07/15 11:06:50;;;;;;;5.90;5.40;;;;;;;31.36;59.06;100341.00;1651266;85;21060;-38
2021/07/15 11:09:33;;;;;;;13.00;5.92;;;;;;;31.36;59.53;100333.28;1645804;85;21028;-43
2021/07/15 11:12:38;;;;;;;5.53;5.00;;;;;;;31.36;57.92;100330.53;1645831;85;20996;-38
2021/07/15 11:15:13;;;;;;;6.58;5.90;;;;;;;31.34;58.02;100332.67;1645403;85;21003;-51
2021/07/15 11:17:48;;;;;;;6.20;5.12;;;;;;;31.33;58.55;100331.00;1652723;85;21046;-40
2021/07/15 11:20:27;;;;;;;6.10;5.50;;;;;;;31.32;58.50;100332.05;1655759;85;21000;-39
2021/07/15 11:26:40;;;;;;;9.00;6.37;;;;;;;31.40;60.20;100334.52;1607414;87;21004;-39
2021/07/15 11:29:10;;;;;;;7.12;5.92;;;;;;;31.44;59.50;100328.87;1609039;87;21441;-41
2021/07/15 11:31:46;;;;;;;8.95;6.33;;;;;;;31.45;57.45;100328.66;1604622;87;21011;-43
2021/07/15 11:34:39;;;;;;;8.93;6.53;;;;;;;31.45;56.36;100325.89;1607577;87;21062;-39
2021/07/15 11:37:33;;;;;;;6.17;5.20;;;;;;;31.42;55.71;100322.20;1553695;90;21035;-43
2021/07/15 11:40:03;;;;;;;7.53;5.17;;;;;;;31.36;52.12;100321.73;1560834;88;21569;-42
2021/07/15 11:42:34;;;;;;;6.50;5.85;;;;;;;31.34;59.41;100314.77;1598430;88;21103;-43
2021/07/15 11:45:06;;;;;;;5.62;5.12;;;;;;;31.33;59.24;100311.72;1595088;88;20976;-38
2021/07/15 11:47:53;;;;;;;6.05;5.33;;;;;;;31.32;56.85;100308.10;1596064;88;21570;-38
2021/07/15 11:50:30;;;;;;;6.03;5.45;;;;;;;31.32;58.18;100305.89;1599386;88;21078;-38
2021/07/15 11:53:18;;;;;;;5.75;4.90;;;;;;;31.34;58.59;100305.13;1590233;88;21082;-41
2021/07/15 11:55:51;;;;;;;5.90;5.12;;;;;;;31.36;55.58;100299.70;1594781;88;21017;-37
2021/07/15 11:58:43;;;;;;;7.45;5.80;;;;;;;31.39;57.82;100297.88;1592870;88;21069;-39
2021/07/15 12:01:24;;;;;;;5.90;5.28;;;;;;;31.44;59.76;100294.44;1604568;87;21031;-41
2021/07/15 12:04:09;;;;;;;7.58;5.47;;;;;;;31.48;59.81;100292.92;1595334;87;21193;-44
2021/07/15 12:06:44;;;;;;;9.88;6.62;;;;;;;31.51;56.18;100286.11;1618831;86;21041;-43
2021/07/15 12:09:19;;;;;;;6.22;5.08;;;;;;;31.53;56.79;100285.34;1632161;85;20999;-42
2021/07/15 12:11:51;;;;;;;7.00;5.42;;;;;;;31.56;57.27;100286.25;1633277;85;21087;-42
2021/07/15 12:14:25;;;;;;;;;;;;;;;31.60;58.15;100279.18;1662896;83;20972;-42
2021/07/15 12:16:57;;;;;;;5.78;5.28;;;;;;;31.65;56.66;100285.70;1708719;82;20194;-43
2021/07/15 12:19:27;;;;;;;12.10;5.67;;;;;;;31.69;56.99;100280.55;1714933;81;21083;-40
2021/07/15 12:21:59;;;;;;;8.43;5.67;;;;;;;31.74;56.15;100279.85;1714719;82;20964;-40
2021/07/15 12:24:34;;;;;;;5.60;5.10;;;;;;;31.77;53.97;100276.62;1718572;82;20996;-42
2021/07/15 12:27:13;;;;;;;6.15;5.22;;;;;;;31.80;60.27;100270.63;1714324;81;20964;-45
2021/07/15 12:30:00;;;;;;;8.90;7.75;;;;;;;31.81;57.84;100275.09;1710830;82;21042;-43
2021/07/15 12:32:32;;;;;;;7.47;6.58;;;;;;;31.84;58.13;100273.23;1711048;82;21017;-42
2021/07/15 12:34:58;;;;;;;7.40;6.00;;;;;;;31.88;55.73;100279.97;1716748;81;21036;-42
2021/07/15 12:37:30;;;;;;;7.72;5.67;;;;;;;31.90;52.72;100280.55;1660981;84;22352;-47
2021/07/15 12:39:58;;;;;;;7.28;5.25;;;;;;;31.91;49.89;100277.57;1715048;81;21006;-46
2021/07/15 12:42:24;;;;;;;5.22;4.72;;;;;;;31.91;49.27;100273.44;1715092;81;20946;-44
2021/07/15 12:44:52;;;;;;;4.83;4.42;;;;;;;31.92;48.96;100271.52;1708872;80;20961;-46
2021/07/15 12:47:19;;;;;;;6.50;5.30;;;;;;;31.91;47.88;100267.92;1716866;80;20977;-44
2021/07/15 12:49:45;;;;;;;7.58;5.33;;;;;;;31.92;47.30;100264.63;1676293;82;21037;-46
2021/07/15 12:52:12;;;;;;;6.67;4.92;;;;;;;31.95;48.79;100257.83;1712709;82;20989;-44
2021/07/15 12:54:47;;;;;;;5.87;5.30;;;;;;;31.97;50.48;100255.14;1720488;81;21060;-50
2021/07/15 12:57:11;;;;;;;7.20;4.80;;;;;;;31.99;52.34;100254.37;1720732;81;20980;-43
2021/07/15 12:59:41;;;;;;;7.53;4.40;;;;;;;32.01;50.27;100249.47;1719296;81;20949;-45
2021/07/15 13:02:08;;;;;;;7.37;5.37;;;;;;;32.03;52.25;100244.57;1718737;81;20997;-43
2021/07/15 13:04:35;;;;;;;7.50;4.87;;;;;;;32.05;50.20;100254.80;1717963;81;21559;-44
2021/07/15 13:07:08;;;;;;;6.40;5.25;;;;;;;32.07;49.99;100243.00;1717541;81;20984;-46
2021/07/15 13:09:44;;;;;;;7.25;4.67;;;;;;;32.10;51.39;100245.82;1722330;81;21008;-47
2021/07/15 13:15:10;;;;;;;7.17;5.65;;;;;;;32.12;51.61;100247.27;1723954;81;20996;-39
2021/07/15 13:17:47;;;;;;;5.40;4.90;;;;;;;32.14;50.98;100243.45;1721409;81;21021;-40
2021/07/15 13:20:21;;;;;;;7.60;5.87;;;;;;;32.14;52.13;100248.41;1718057;81;21044;-40
2021/07/15 13:22:53;;;;;;;6.67;6.03;;;;;;;32.16;49.55;100231.11;1717331;81;21028;-51
2021/07/15 13:25:24;;;;;;;7.67;5.20;;;;;;;32.19;51.75;100231.16;1719453;81;21048;-46
2021/07/15 13:28:04;;;;;;;5.58;5.08;;;;;;;32.21;51.19;100230.39;1722393;81;21080;-46
2021/07/15 13:30:31;;;;;;;7.15;5.30;;;;;;;32.24;50.58;100234.05;1720075;82;21027;-41